x

Isle Of Shoals, Nh (iosn3) Weather Station

7:00pm - Fri 22nd Jun 2018 All times are EDT. -4 hours from GMT.

  • Wind
    13mph, 14mph gusts
  • Air Temp 61°f
  • Sea Pressure 1017.2mb
  • Isle Of Shoals, Nh
  • Isle Of Shoals, Nh

More Historic Weather Station data

Upgrade to MSW Pro to gain access to the past 30 days of data for over 8000 Wavebouys and Weather Stations around the globe.

Join

Comparision Forecast

View Surf forecast
   
Fri 06/22 7:00pm 13 14 mph 1017.2mb 61f
6:00pm 16 17 mph 1017mb 61f
5:00pm 14 15 mph 1017.5mb 61f
4:00pm 13 13 mph 1017.7mb 61f
3:00pm 10 10 mph 1017.9mb 61f
2:00pm 7 7 mph 1018mb 60f
1:00pm 6 6 mph 1018.4mb 59f
12:00pm 9 9 mph 1018.4mb 58f
11:00am 13 14 mph 1018.5mb 58f
10:00am 15 16 mph 1018.3mb 58f
9:00am 15 16 mph 1017.9mb 58f
8:00am 14 16 mph 1017.3mb 58f
7:00am 15 17 mph 1016.1mb 58f
6:00am 16 17 mph 1015.5mb 58f
5:00am 18 20 mph 1014.4mb 59f
4:00am 21 23 mph 1013.9mb 59f
3:00am 18 21 mph 1013.6mb 60f
2:00am 18 21 mph 1013.1mb 61f
1:00am 11 11 mph 1013mb 60f
12:00am 10 10 mph 1012.7mb 62f
Thu 06/21 11:00pm 7 8 mph 1012.3mb 63f
10:00pm 8 9 mph 1011.8mb 62f
9:00pm 3 3 mph 1010.9mb 61f
8:00pm 5 5 mph 1010mb 62f
7:00pm 11 11 mph 1009.1mb 61f
6:00pm 14 15 mph 1008.4mb 61f
5:00pm 15 15 mph 1008.2mb 62f
4:00pm 13 13 mph 1008.3mb 62f
3:00pm 15 15 mph 1007.9mb 63f
2:00pm 13 13 mph 1008.3mb 65f
1:00pm 15 15 mph 1008.1mb 68f
12:00pm 14 14 mph 1008.1mb 67f
11:00am 9 11 mph 1008.1mb 69f
10:00am 8 8 mph 1007.9mb 65f
9:00am 11 14 mph 1007.4mb 66f
8:00am 13 14 mph 1007mb 65f
7:00am 11 13 mph 1006.8mb 62f
6:00am 13 13 mph 1006.5mb 61f
5:00am 13 13 mph 1006.1mb 62f
4:00am 11 11 mph 1005.7mb 62f
3:00am 10 11 mph 1006.1mb 63f
2:00am 14 14 mph 1006.3mb 65f
1:00am 14 14 mph 1006.4mb 67f
12:00am 15 15 mph 1006.7mb 68f
Wed 06/20 11:00pm 15 15 mph 1006.7mb 69f
10:00pm 15 15 mph 1006.9mb 69f
9:00pm 18 18 mph 1006.5mb 72f
8:00pm 18 20 mph 1006.3mb 74f
7:00pm 17 17 mph 1006.4mb 75f
6:00pm 13 14 mph 1006.7mb 73f
5:00pm 18 21 mph 1007.1mb 70f
4:00pm 18 20 mph 1007.9mb 64f
3:00pm 20 21 mph 1008.2mb 64f
2:00pm 21 22 mph 1008.4mb 65f
1:00pm 21 22 mph 1009.1mb 66f
12:00pm 18 20 mph 1010mb 68f
11:00am 10 11 mph 1010.9mb 66f
10:00am 11 11 mph 1011.4mb 66f
9:00am 9 9 mph 1012mb 63f
8:00am 6 6 mph 1012.3mb 59f
7:00am 9 9 mph 1011.9mb 57f
6:00am 10 11 mph 1011.2mb 58f
5:00am 10 10 mph 1010.9mb 59f
4:00am 9 9 mph 1010.8mb 60f
3:00am 11 11 mph 1010.8mb 64f
2:00am 11 11 mph 1011mb 64f
1:00am 13 14 mph 1011mb 66f
12:00am 9 9 mph 1011.4mb 67f
Tue 06/19 11:00pm 14 15 mph 1010.9mb 68f
10:00pm 14 14 mph 1010.3mb 70f
9:00pm 17 18 mph 1009.3mb 73f
8:00pm 16 17 mph 1008.6mb 74f
7:00pm 16 16 mph 1008mb 75f
6:00pm 15 15 mph 1007.2mb 76f
5:00pm 17 20 mph 1006.9mb 75f
4:00pm 18 20 mph 1006.6mb 75f
3:00pm 18 21 mph 1006.6mb 74f
2:00pm 20 21 mph 1006.5mb 74f
1:00pm 17 20 mph 1006.5mb 71f
12:00pm 17 18 mph 1006.6mb 71f
11:00am 26 28 mph 1006.4mb 70f
10:00am 16 20 mph 1006.1mb 69f
9:00am 15 17 mph 1005.7mb 69f
8:00am 15 17 mph 1005.4mb 67f
7:00am 13 15 mph 1004.8mb 68f
6:00am 20 22 mph 1003.7mb 72f
5:00am 20 22 mph 1002.6mb 73f
4:00am 20 20 mph 1001.7mb 74f
3:00am 23 24 mph 1001.1mb 73f
2:00am 26 28 mph 1000.6mb 72f
1:00am 25 26 mph 1000.7mb 69f